createdAt,value
2019-05-17T00:01:27.738Z,101725.31
2019-05-17T00:03:58.984Z,101779.93
2019-05-17T00:06:30.179Z,101843.21
2019-05-17T00:09:01.421Z,101901.00
2019-05-17T00:11:36.626Z,101967.56
2019-05-17T00:14:07.246Z,102102.61
2019-05-17T00:16:38.488Z,102228.20
2019-05-17T00:19:09.815Z,102367.27
2019-05-17T00:21:41.090Z,102531.14
2019-05-17T00:24:12.975Z,102692.38
2019-05-17T00:26:46.633Z,102849.31
2019-05-17T00:29:18.474Z,103034.61
2019-05-17T00:31:49.799Z,103248.52
2019-05-17T00:34:21.067Z,103442.33
2019-05-17T00:36:52.551Z,103629.45
2019-05-17T00:39:23.868Z,103782.63
2019-05-17T00:41:57.159Z,104023.34
2019-05-17T00:44:28.010Z,104223.95
2019-05-17T00:47:00.745Z,104442.84
2019-05-17T00:49:31.945Z,104661.30
2019-05-17T00:52:04.501Z,104851.13
2019-05-17T00:54:38.715Z,105091.55
2019-05-17T00:57:10.225Z,105337.70
2019-05-17T00:59:41.394Z,105583.91
2019-05-17T01:02:12.760Z,105841.62
2019-05-17T01:04:43.931Z,106086.05
2019-05-17T01:07:17.658Z,106095.16
2019-05-17T01:09:48.692Z,106327.26
2019-05-17T01:12:20.134Z,106564.77
2019-05-17T01:14:52.372Z,106689.55
2019-05-17T01:17:27.160Z,106930.98
2019-05-17T01:20:00.191Z,107270.52
2019-05-17T01:22:31.399Z,107707.83
2019-05-17T01:25:03.195Z,108042.34
2019-05-17T01:27:34.505Z,108313.92
2019-05-17T01:30:06.823Z,108551.17
2019-05-17T01:32:38.171Z,108828.13
2019-05-17T01:35:09.620Z,109089.30
2019-05-17T01:37:40.816Z,109378.05
2019-05-17T01:40:12.539Z,109685.78
2019-05-17T01:42:43.755Z,109921.55
2019-05-17T01:45:16.838Z,110185.94
2019-05-17T01:47:48.123Z,110436.16
2019-05-17T01:50:19.412Z,110615.72
2019-05-17T01:52:51.028Z,110928.41
2019-05-17T01:55:22.277Z,111193.72
2019-05-17T01:57:53.614Z,111514.73
2019-05-17T02:00:26.566Z,111722.98
2019-05-17T02:02:58.087Z,111928.73
2019-05-17T02:05:30.274Z,112179.67
2019-05-17T02:08:02.489Z,112354.44
2019-05-17T02:10:33.714Z,112544.40
2019-05-17T02:13:06.611Z,112774.08
2019-05-17T02:15:38.396Z,113026.16
2019-05-17T02:18:09.674Z,113199.67
2019-05-17T02:20:40.985Z,113278.56
2019-05-17T02:23:12.155Z,113457.31
2019-05-17T02:25:43.436Z,113563.06
2019-05-17T02:28:14.765Z,113634.80
2019-05-17T02:30:46.340Z,113839.29
2019-05-17T02:33:18.918Z,113984.64
2019-05-17T02:35:53.408Z,114099.28
2019-05-17T02:38:23.700Z,114117.84
2019-05-17T02:40:54.989Z,114239.03
2019-05-17T02:43:26.360Z,114339.05
2019-05-17T02:45:57.745Z,114395.58
2019-05-17T02:48:29.419Z,114544.81
2019-05-17T02:51:03.524Z,114628.48
2019-05-17T02:53:35.336Z,114684.55
2019-05-17T02:56:07.473Z,114791.95
2019-05-17T02:58:38.826Z,114804.58
2019-05-17T03:01:12.805Z,114845.73
2019-05-17T03:03:44.287Z,114917.61
2019-05-17T03:06:38.705Z,115033.08
2019-05-17T03:09:12.475Z,115150.72
2019-05-17T03:11:44.630Z,115315.05
2019-05-17T03:14:15.861Z,115428.25
2019-05-17T03:16:55.944Z,115689.63
2019-05-17T03:19:27.733Z,115853.05
2019-05-17T03:22:04.397Z,116034.38
2019-05-17T03:24:53.293Z,116146.86
2019-05-17T03:27:26.286Z,116355.37
2019-05-17T03:29:57.580Z,116550.81
2019-05-17T03:32:35.474Z,116736.14
2019-05-17T03:35:06.940Z,117073.61
2019-05-17T03:37:37.881Z,117282.25
2019-05-17T03:40:24.903Z,117226.64
2019-05-17T03:42:42.842Z,117312.90
2019-05-17T03:45:14.605Z,117399.69
2019-05-17T03:47:46.012Z,117537.02
2019-05-17T03:50:17.280Z,117702.56
2019-05-17T03:52:48.930Z,117767.52
2019-05-17T03:55:23.522Z,117877.53
2019-05-17T03:57:53.974Z,117878.92
2019-05-17T04:00:25.170Z,117940.48
2019-05-17T04:02:58.492Z,117751.69
2019-05-17T04:05:33.393Z,117131.48
2019-05-17T04:08:04.371Z,117279.25
2019-05-17T04:10:35.759Z,117473.06
2019-05-17T04:13:07.240Z,117739.93
2019-05-17T04:15:38.450Z,117956.66
2019-05-17T04:18:12.825Z,118071.06
2019-05-17T04:20:43.565Z,118306.80
2019-05-17T04:23:14.919Z,118485.49
2019-05-17T04:25:46.390Z,118711.70
2019-05-17T04:28:17.653Z,118970.70
2019-05-17T04:30:52.532Z,119156.29
2019-05-17T04:33:23.158Z,119411.94
2019-05-17T04:35:55.176Z,120622.16
2019-05-17T04:38:26.448Z,120860.99
2019-05-17T04:40:57.787Z,120836.00
2019-05-17T04:43:29.539Z,121029.74
2019-05-17T04:46:02.972Z,121053.34
2019-05-17T04:48:34.711Z,121045.05
2019-05-17T04:51:05.993Z,121067.56
2019-05-17T04:53:37.168Z,121139.30
2019-05-17T04:56:08.657Z,120982.56
2019-05-17T04:58:42.979Z,121096.64
2019-05-17T05:01:14.402Z,121258.12
2019-05-17T05:03:45.981Z,121320.77
2019-05-17T05:06:17.432Z,121269.83
2019-05-17T05:08:48.946Z,121298.41
2019-05-17T05:11:23.281Z,121309.14
2019-05-17T05:13:53.668Z,121274.15
2019-05-17T05:16:25.319Z,121301.34
2019-05-17T05:18:58.236Z,121318.86
2019-05-17T05:21:32.384Z,121267.37
2019-05-17T05:24:04.494Z,121202.97
2019-05-17T05:26:35.862Z,121220.20
2019-05-17T05:29:07.442Z,121260.45
2019-05-17T05:31:39.391Z,121181.77
2019-05-17T05:34:12.301Z,121158.90
2019-05-17T05:36:44.267Z,121091.02
2019-05-17T05:39:15.987Z,120964.62
2019-05-17T05:41:48.836Z,120523.50
2019-05-17T05:44:21.528Z,120335.72
2019-05-17T05:46:52.999Z,120276.04
2019-05-17T05:49:24.405Z,120980.00
2019-05-17T05:51:58.233Z,120832.57
2019-05-17T05:54:31.852Z,121321.84
2019-05-17T05:57:03.466Z,121132.80
2019-05-17T05:59:35.499Z,121103.58
2019-05-17T06:02:08.184Z,121053.66
2019-05-17T06:04:42.418Z,120974.26
2019-05-17T06:07:13.849Z,121045.17
2019-05-17T06:09:45.758Z,121987.76
2019-05-17T06:12:23.735Z,122025.62
2019-05-17T06:14:52.364Z,121987.98
2019-05-17T06:17:24.249Z,121746.17
2019-05-17T06:19:55.425Z,121807.03
2019-05-17T06:22:26.804Z,121910.36
2019-05-17T06:24:58.443Z,121773.98
2019-05-17T06:27:32.091Z,121718.76
2019-05-17T06:30:03.440Z,121739.44
2019-05-17T06:32:37.859Z,121707.30
2019-05-17T06:35:12.723Z,121823.13
2019-05-17T06:37:46.872Z,121630.29
2019-05-17T06:40:18.596Z,121453.88
2019-05-17T06:42:52.371Z,121356.78
2019-05-17T06:45:22.933Z,121278.15
2019-05-17T06:47:54.136Z,121196.87
2019-05-17T06:50:25.518Z,121068.03
2019-05-17T06:52:56.734Z,121029.31
2019-05-17T06:55:28.077Z,120971.52
2019-05-17T06:58:01.525Z,121014.89
2019-05-17T07:00:32.882Z,121299.83
2019-05-17T07:03:04.214Z,121384.05
2019-05-17T07:05:37.318Z,121401.66
2019-05-17T07:08:10.790Z,121059.53
2019-05-17T07:10:41.533Z,120956.18
2019-05-17T07:13:12.797Z,120831.88
2019-05-17T07:15:50.204Z,120813.16
2019-05-17T07:18:20.264Z,120795.47
2019-05-17T07:20:53.475Z,120815.03
2019-05-17T07:23:25.404Z,120772.98
2019-05-17T07:25:56.789Z,120758.34
2019-05-17T07:28:30.279Z,120772.83
2019-05-17T07:31:02.660Z,120746.30
2019-05-17T07:33:34.640Z,120752.76
2019-05-17T07:36:05.905Z,120872.84
2019-05-17T07:38:39.675Z,120834.91
2019-05-17T07:41:12.183Z,121041.11
2019-05-17T07:43:43.775Z,121085.97
2019-05-17T07:46:15.154Z,121157.18
2019-05-17T07:48:46.491Z,121055.03
2019-05-17T07:51:19.494Z,121048.56
2019-05-17T07:53:51.712Z,121054.33
2019-05-17T07:56:26.732Z,121029.14
2019-05-17T07:59:00.044Z,121037.31
2019-05-17T08:01:52.935Z,121092.25
2019-05-17T08:04:24.378Z,121086.62
2019-05-17T08:06:55.738Z,121121.97
2019-05-17T08:09:26.899Z,121056.91
2019-05-17T08:11:59.746Z,121042.02
2019-05-17T08:14:36.322Z,120997.20
2019-05-17T08:17:10.539Z,120940.45
2019-05-17T08:19:41.994Z,120970.94
2019-05-17T08:22:13.309Z,120910.70
2019-05-17T08:24:44.833Z,120946.11
2019-05-17T08:27:16.175Z,120962.09
2019-05-17T08:29:50.563Z,120994.36
2019-05-17T08:32:40.756Z,121025.23
2019-05-17T08:35:12.149Z,121093.83
2019-05-17T08:37:45.201Z,121241.22
2019-05-17T08:40:20.015Z,121237.25
2019-05-17T08:42:53.723Z,121308.14
2019-05-17T08:45:29.597Z,121319.69
2019-05-17T08:48:01.441Z,121344.33
2019-05-17T08:50:33.426Z,121341.02
2019-05-17T08:53:04.900Z,121371.56
2019-05-17T08:55:36.369Z,121383.92
2019-05-17T08:58:10.280Z,121365.63
2019-05-17T09:00:41.111Z,121396.18
2019-05-17T09:03:19.544Z,121369.14
2019-05-17T09:05:52.562Z,121348.05
2019-05-17T09:08:23.959Z,121415.55
2019-05-17T09:10:56.021Z,121430.09
2019-05-17T09:13:30.047Z,121453.61
2019-05-17T09:16:02.018Z,121501.02
2019-05-17T09:18:33.594Z,121578.05
2019-05-17T09:21:09.764Z,121614.90
2019-05-17T09:23:42.459Z,121711.08
2019-05-17T09:26:13.884Z,121768.41
2019-05-17T09:28:45.486Z,121834.98
2019-05-17T09:31:21.602Z,121924.42
2019-05-17T09:33:56.947Z,122007.39
2019-05-17T09:36:30.288Z,122134.05
2019-05-17T09:39:01.289Z,122226.55
2019-05-17T09:41:36.452Z,122317.83
2019-05-17T09:44:15.907Z,122414.48
2019-05-17T09:46:43.480Z,122521.52
2019-05-17T09:49:14.990Z,122747.92
2019-05-17T09:51:46.733Z,122830.44
2019-05-17T09:55:11.300Z,119090.74
2019-05-17T09:57:44.593Z,122980.30
2019-05-17T10:00:17.115Z,122996.40
2019-05-17T10:02:50.842Z,123389.96
2019-05-17T10:05:22.657Z,123460.35
2019-05-17T10:07:54.348Z,123707.70
2019-05-17T10:10:28.646Z,123925.36
2019-05-17T10:13:00.621Z,124268.73
2019-05-17T10:15:32.243Z,124584.98
2019-05-17T10:18:05.815Z,125052.55
2019-05-17T10:20:41.344Z,125360.48
2019-05-17T10:23:14.660Z,125756.66
2019-05-17T10:25:46.009Z,126165.77
2019-05-17T10:28:17.485Z,126710.60
2019-05-17T10:30:53.386Z,127200.97
2019-05-17T10:33:26.449Z,127549.11
2019-05-17T10:36:00.303Z,128000.73
2019-05-17T10:38:32.195Z,128464.19
2019-05-17T10:41:03.498Z,128935.59
2019-05-17T10:43:34.969Z,129481.18
2019-05-17T10:46:23.913Z,129997.62
2019-05-17T10:48:55.420Z,130495.98
2019-05-17T10:51:26.768Z,130901.37
2019-05-17T10:54:00.118Z,130425.98
2019-05-17T10:56:31.602Z,130038.98
2019-05-17T10:59:03.029Z,129289.33
2019-05-17T11:01:34.378Z,128050.39
2019-05-17T11:04:06.341Z,126406.55
2019-05-17T11:06:39.419Z,125063.29
2019-05-17T11:09:20.223Z,123967.46
2019-05-17T11:11:54.001Z,123091.31
2019-05-17T11:14:26.093Z,121882.92
2019-05-17T11:16:58.299Z,120769.34
2019-05-17T11:19:29.872Z,119539.74
2019-05-17T11:22:04.442Z,118474.25
2019-05-17T11:24:35.736Z,117816.14
2019-05-17T11:27:08.760Z,117202.66
2019-05-17T11:29:40.666Z,117295.41
2019-05-17T11:32:17.411Z,117479.96
2019-05-17T11:34:50.895Z,117548.94
2019-05-17T11:37:24.190Z,117414.11
2019-05-17T11:39:55.543Z,117477.23
2019-05-17T11:42:29.931Z,117442.31
2019-05-17T11:45:01.635Z,117446.50
2019-05-17T11:47:36.817Z,117184.70
2019-05-17T11:50:09.227Z,117062.34
2019-05-17T11:52:43.573Z,116790.48
2019-05-17T11:55:15.364Z,116388.72
2019-05-17T11:57:46.860Z,115937.61
2019-05-17T12:00:20.178Z,115706.76
2019-05-17T12:02:51.458Z,115599.59
2019-05-17T12:05:26.437Z,115514.36
2019-05-17T12:07:58.756Z,115762.31
2019-05-17T12:10:31.314Z,116039.42
2019-05-17T12:13:02.794Z,116479.30
2019-05-17T12:15:44.570Z,116679.73
2019-05-17T12:18:08.145Z,116903.32
2019-05-17T12:20:39.400Z,117015.58
2019-05-17T12:23:12.799Z,116839.52
2019-05-17T12:25:44.490Z,116639.53
2019-05-17T12:28:16.279Z,116586.43
2019-05-17T12:30:47.573Z,116315.61
2019-05-17T12:33:19.951Z,116129.05
2019-05-17T12:35:52.220Z,116058.95
2019-05-17T12:38:25.533Z,115809.45
2019-05-17T12:41:00.009Z,115505.03
2019-05-17T12:43:53.793Z,115219.78
2019-05-17T12:46:29.845Z,115207.83
2019-05-17T12:49:06.116Z,114980.08
2019-05-17T12:51:38.717Z,114810.60
2019-05-17T12:54:10.845Z,114770.76
2019-05-17T12:56:45.786Z,114468.46
2019-05-17T12:59:25.895Z,113800.88
2019-05-17T13:02:02.577Z,112640.59
2019-05-17T13:04:35.189Z,111383.72
2019-05-17T13:07:06.743Z,110992.10
2019-05-17T13:09:40.056Z,110285.22
2019-05-17T13:12:11.473Z,109465.77
2019-05-17T13:14:43.065Z,108986.26
2019-05-17T13:17:14.928Z,108529.53
2019-05-17T13:19:46.541Z,108036.72
2019-05-17T13:22:20.427Z,107963.26
2019-05-17T13:24:57.046Z,107837.03
2019-05-17T13:27:38.548Z,107486.17
2019-05-17T13:30:11.436Z,107095.64
2019-05-17T13:32:42.913Z,106883.61
2019-05-17T13:35:18.966Z,106864.52
2019-05-17T13:37:52.750Z,106815.19
2019-05-17T13:40:24.310Z,106770.46
2019-05-17T13:43:01.575Z,106762.08
2019-05-17T13:45:33.461Z,106578.39
2019-05-17T13:48:05.296Z,106419.97
2019-05-17T13:50:39.904Z,106329.49
2019-05-17T13:53:12.100Z,106306.05
2019-05-17T13:55:47.915Z,106248.69
2019-05-17T13:58:20.543Z,106256.70
2019-05-17T14:00:52.900Z,106228.78
2019-05-17T14:03:30.731Z,106054.02
2019-05-17T14:06:02.165Z,105902.02
2019-05-17T14:08:35.253Z,105730.31
2019-05-17T14:11:06.883Z,105738.17
2019-05-17T14:13:40.329Z,105636.45
2019-05-17T14:16:12.610Z,105513.85
2019-05-17T14:19:04.799Z,105446.37
2019-05-17T14:21:49.893Z,105332.45
2019-05-17T14:24:36.701Z,105086.47
2019-05-17T14:27:37.184Z,104870.70
2019-05-17T14:30:08.232Z,104650.90
2019-05-17T14:32:41.678Z,104554.03
2019-05-17T14:35:13.080Z,104438.17
2019-05-17T14:37:44.937Z,104312.88
2019-05-17T14:40:20.436Z,104163.89
2019-05-17T14:42:54.594Z,104137.87
2019-05-17T14:45:26.284Z,104091.83
2019-05-17T14:47:57.748Z,104038.66
2019-05-17T14:50:29.351Z,103882.81
2019-05-17T14:53:01.734Z,103790.66
2019-05-17T14:55:33.637Z,103899.28
2019-05-17T14:58:05.569Z,103877.17
2019-05-17T15:00:40.173Z,103617.69
2019-05-17T15:03:11.738Z,103430.23
2019-05-17T15:05:43.078Z,103221.70
2019-05-17T15:08:14.447Z,103092.46
2019-05-17T15:10:46.714Z,103003.20
2019-05-17T15:13:18.180Z,102889.89
2019-05-17T15:15:51.270Z,102872.16
2019-05-17T15:18:22.761Z,102889.72
2019-05-17T15:20:54.350Z,102978.84
2019-05-17T15:23:28.220Z,103096.88
2019-05-17T15:25:59.926Z,103287.09
2019-05-17T15:28:32.209Z,103429.25
2019-05-17T15:31:04.207Z,103513.87
2019-05-17T15:33:35.775Z,103599.85
2019-05-17T15:36:15.203Z,103671.48
2019-05-17T15:38:50.583Z,103731.97
2019-05-17T15:41:22.294Z,103779.61
2019-05-17T15:43:55.312Z,103893.45
2019-05-17T15:46:27.831Z,104016.53
2019-05-17T15:49:07.316Z,104235.02
2019-05-17T15:51:41.878Z,104301.27
2019-05-17T15:54:17.477Z,104491.95
2019-05-17T15:56:53.160Z,104673.59
2019-05-17T15:59:28.002Z,104968.08
2019-05-17T16:04:55.347Z,105549.31
2019-05-17T16:07:34.186Z,105689.34
2019-05-17T16:10:18.260Z,105669.50
2019-05-17T16:13:02.833Z,105596.69
2019-05-17T16:15:38.526Z,105507.81
2019-05-17T16:18:11.820Z,105441.74
2019-05-17T16:20:49.281Z,105283.44
2019-05-17T16:23:28.701Z,105105.19
2019-05-17T16:26:03.234Z,104996.64
2019-05-17T16:28:47.683Z,105061.94
2019-05-17T16:31:23.226Z,105035.40
2019-05-17T16:33:54.909Z,104931.42
2019-05-17T16:36:27.971Z,104868.44
2019-05-17T16:39:04.335Z,104725.27
2019-05-17T16:41:38.066Z,104615.93
2019-05-17T16:44:14.582Z,104545.83
2019-05-17T16:46:45.724Z,104586.39
2019-05-17T16:49:17.242Z,104835.01
2019-05-17T16:51:48.856Z,105199.69
2019-05-17T16:54:24.123Z,105487.99
2019-05-17T16:57:00.425Z,105554.80
2019-05-17T16:59:31.724Z,105803.56
2019-05-17T17:02:03.106Z,106097.92
2019-05-17T17:04:34.479Z,106312.77
2019-05-17T17:07:05.833Z,106338.55
2019-05-17T17:09:37.425Z,106346.45
2019-05-17T17:12:08.803Z,106410.62
2019-05-17T17:14:40.302Z,106299.80
2019-05-17T17:17:12.992Z,106052.95
2019-05-17T17:19:44.798Z,105899.25
2019-05-17T17:22:16.220Z,106042.50
2019-05-17T17:24:48.692Z,106359.11
2019-05-17T17:27:20.536Z,106667.50
2019-05-17T17:29:52.219Z,107122.27
2019-05-17T17:32:26.584Z,107736.58
2019-05-17T17:34:58.443Z,108027.52
2019-05-17T17:37:29.855Z,108377.31
2019-05-17T17:40:00.986Z,108972.70
2019-05-17T17:42:32.256Z,109607.81
2019-05-17T17:45:04.925Z,110193.92
2019-05-17T17:47:36.265Z,110765.28
2019-05-17T17:50:08.286Z,111316.38
2019-05-17T17:52:39.999Z,111711.02
2019-05-17T17:55:54.910Z,111803.91
2019-05-17T18:02:33.592Z,112339.69
2019-05-17T18:06:00.418Z,112510.86
2019-05-17T18:09:06.342Z,112779.67
2019-05-17T18:13:34.067Z,112965.78
2019-05-17T18:16:30.860Z,113150.39
2019-05-17T18:19:40.243Z,113357.38
2019-05-17T18:26:10.933Z,113372.62
2019-05-17T18:32:16.427Z,113513.13
2019-05-17T18:35:37.553Z,113834.91
2019-05-17T18:42:12.888Z,114366.67
2019-05-17T18:44:27.952Z,114632.16
2019-05-17T18:51:18.609Z,115217.93
2019-05-17T18:57:24.852Z,115556.75
2019-05-17T19:11:01.697Z,117171.38
2019-05-17T19:13:47.376Z,117753.61
2019-05-17T19:17:34.736Z,118393.72
2019-05-17T19:25:05.415Z,119811.20
2019-05-17T19:27:16.917Z,120829.84
2019-05-17T19:29:48.267Z,121429.77
2019-05-17T19:32:19.604Z,121915.03
2019-05-17T19:34:50.890Z,122289.97
2019-05-17T19:37:22.366Z,122528.08
2019-05-17T19:39:54.460Z,122765.55
2019-05-17T19:42:26.318Z,122967.01
2019-05-17T19:44:59.555Z,123157.97
2019-05-17T19:47:30.917Z,123326.97
2019-05-17T19:50:03.594Z,123442.39
2019-05-17T19:52:36.076Z,123665.23
2019-05-17T19:55:08.843Z,123843.72
2019-05-17T19:57:40.311Z,124116.28
2019-05-17T20:00:13.243Z,124220.59
2019-05-17T20:02:44.665Z,124323.26
2019-05-17T20:05:16.134Z,124454.44
2019-05-17T20:07:48.540Z,124663.31
2019-05-17T20:10:22.633Z,125011.95
2019-05-17T20:12:54.216Z,125361.06
2019-05-17T20:15:34.184Z,125668.18
2019-05-17T20:18:01.062Z,125971.36
2019-05-17T20:20:32.277Z,126188.28
2019-05-17T20:23:04.485Z,126401.45
2019-05-17T20:25:37.318Z,126506.38
2019-05-17T20:28:09.546Z,126681.89
2019-05-17T20:30:40.985Z,126889.33
2019-05-17T20:33:12.632Z,127025.81
2019-05-17T20:35:44.075Z,127254.38
2019-05-17T20:38:15.702Z,127494.08
2019-05-17T20:40:50.202Z,127763.98
2019-05-17T20:43:25.155Z,127856.44
2019-05-17T20:45:56.442Z,128025.06
2019-05-17T20:48:28.700Z,128076.72
2019-05-17T20:51:00.234Z,128186.18
2019-05-17T20:53:31.496Z,128361.13
2019-05-17T20:56:02.861Z,128435.52
2019-05-17T20:58:34.168Z,128467.48
2019-05-17T21:01:05.812Z,128370.71
2019-05-17T21:03:37.140Z,128537.99
2019-05-17T21:06:09.407Z,128790.17
2019-05-17T21:08:46.095Z,129075.34
2019-05-17T21:11:15.155Z,129174.67
2019-05-17T21:13:46.473Z,129397.94
2019-05-17T21:16:18.705Z,129656.95
2019-05-17T21:18:53.881Z,129799.53
2019-05-17T21:21:25.284Z,129841.30
2019-05-17T21:23:57.049Z,130253.94
2019-05-17T21:26:28.820Z,130478.89
2019-05-17T21:29:00.101Z,130677.66
2019-05-17T21:31:31.529Z,130890.24
2019-05-17T21:34:03.126Z,131105.72
2019-05-17T21:36:34.519Z,131352.67
2019-05-17T21:39:07.175Z,131648.78
2019-05-17T21:41:38.437Z,131750.34
2019-05-17T21:44:11.328Z,131670.30
2019-05-17T21:46:42.669Z,131611.69
2019-05-17T21:49:13.958Z,131778.81
2019-05-17T21:51:45.620Z,131830.66
2019-05-17T21:54:16.849Z,131983.80
2019-05-17T21:56:48.471Z,132118.92
2019-05-17T21:59:20.022Z,132271.00
2019-05-17T22:01:51.445Z,132454.02
2019-05-17T22:04:26.956Z,132474.48
2019-05-17T22:06:58.061Z,132406.94
2019-05-17T22:09:29.483Z,132515.66
2019-05-17T22:12:04.119Z,132529.58
2019-05-17T22:14:35.466Z,132601.27
2019-05-17T22:17:06.789Z,132797.94
2019-05-17T22:19:37.960Z,132822.47
2019-05-17T22:22:09.372Z,132828.50
2019-05-17T22:24:41.112Z,132815.39
2019-05-17T22:27:12.918Z,132734.08
2019-05-17T22:29:44.169Z,132699.80
2019-05-17T22:32:15.747Z,132805.30
2019-05-17T22:34:48.060Z,132764.00
2019-05-17T22:37:19.792Z,132825.75
2019-05-17T22:39:51.318Z,132674.67
2019-05-17T22:42:22.777Z,132679.69
2019-05-17T22:44:53.962Z,132640.25
2019-05-17T22:48:02.580Z,133276.36
2019-05-17T22:50:34.029Z,132439.59
2019-05-17T22:53:05.462Z,132391.22
2019-05-17T22:55:36.793Z,132462.87
2019-05-17T22:58:08.231Z,132588.31
2019-05-17T23:00:39.479Z,132721.88
2019-05-17T23:03:12.054Z,132860.14
2019-05-17T23:05:43.379Z,133149.94
2019-05-17T23:08:24.633Z,133395.98
2019-05-17T23:10:55.920Z,133678.28
2019-05-17T23:13:27.158Z,133936.28
2019-05-17T23:16:02.933Z,134263.19
2019-05-17T23:18:34.434Z,134327.31
2019-05-17T23:21:08.697Z,134286.56
2019-05-17T23:23:40.326Z,134339.38
2019-05-17T23:26:11.883Z,134408.78
2019-05-17T23:28:43.503Z,134568.77
2019-05-17T23:31:15.221Z,134810.28
2019-05-17T23:33:46.999Z,135093.16
2019-05-17T23:36:18.725Z,135301.09
2019-05-17T23:38:50.413Z,135546.09
2019-05-17T23:41:21.745Z,135759.83
2019-05-17T23:43:53.013Z,136055.77
2019-05-17T23:46:24.233Z,136319.75
2019-05-17T23:48:55.579Z,136625.44
2019-05-17T23:51:27.229Z,136850.38
2019-05-17T23:53:58.717Z,136947.73
2019-05-17T23:56:30.474Z,137073.59
2019-05-17T23:59:02.225Z,137132.34
